Time;durP1;ratioP1;P1;durP2;ratioP2;P2;SDS_P1;SDS_P2;PMS_P1;PMS_P2;Temp;Humidity;BMP_temperature;BMP_pressure;BME280_temperature;BME280_humidity;BME280_pressure;Samples;Min_cycle;Max_cycle;Signal;HPM_P1;HPM_P2
2021/09/17 00:02:08;;;;;;;;;;;;;;;19.59;85.01;97758.59;1773510;79;21926;-87
2021/09/17 00:04:48;;;;;;;;;;;;;;;19.56;85.01;97753.66;1754486;80;26169;-87
2021/09/17 00:07:13;;;;;;;;;;;;;;;19.54;85.02;97756.98;1782944;79;23981;-86
2021/09/17 00:09:39;;;;;;;;;;;;;;;19.57;85.06;97756.64;1766845;81;20217;-86
2021/09/17 00:12:06;;;;;;;;;;;;;;;19.63;85.04;97755.42;1824660;77;24644;-88
2021/09/17 00:14:32;;;;;;;;;;;;;;;19.61;85.06;97760.08;1759332;80;22185;-88
2021/09/17 00:17:06;;;;;;;;;;;;;;;19.57;85.06;97760.13;1826923;77;25967;-86
2021/09/17 00:19:33;;;;;;;;;;;;;;;19.54;85.08;97759.14;1832867;77;24508;-86
2021/09/17 00:21:59;;;;;;;;;;;;;;;19.51;85.10;97753.37;1816652;77;20210;-89
2021/09/17 00:24:25;;;;;;;;;;;;;;;19.43;85.10;97749.42;1827345;77;24563;-89
2021/09/17 00:26:52;;;;;;;;;;;;;;;19.40;85.11;97744.48;1822373;77;20839;-88
2021/09/17 00:29:18;;;;;;;;;;;;;;;19.40;85.13;97746.64;1819804;77;25925;-89
2021/09/17 00:31:44;;;;;;;;;;;;;;;19.39;85.15;97742.33;1827780;77;24647;-87
2021/09/17 00:34:10;;;;;;;;;;;;;;;19.39;85.18;97736.20;1832887;77;20214;-89
2021/09/17 00:36:36;;;;;;;;;;;;;;;19.38;85.18;97741.17;1832467;77;24586;-87
2021/09/17 00:39:03;;;;;;;;;;;;;;;19.39;85.22;97738.35;1832425;77;21965;-88
2021/09/17 00:41:29;;;;;;;;;;;;;;;19.38;85.22;97734.04;1822497;77;26015;-89
2021/09/17 00:43:56;;;;;;;;;;;;;;;19.33;85.26;97733.76;1829412;77;24425;-89
2021/09/17 00:46:28;;;;;;;;;;;;;;;19.29;85.27;97732.47;1826543;77;20330;-89
2021/09/17 00:48:54;;;;;;;;;;;;;;;19.26;85.28;97723.53;1833195;77;24521;-90
2021/09/17 00:51:20;;;;;;;;;;;;;;;19.19;85.29;97720.79;1825965;77;21886;-90
2021/09/17 00:53:46;;;;;;;;;;;;;;;19.16;85.32;97726.94;1825283;77;26031;-89
2021/09/17 00:56:12;;;;;;;;;;;;;;;19.15;85.32;97719.47;1826691;77;24808;-89
2021/09/17 00:58:38;;;;;;;;;;;;;;;19.10;85.29;97719.69;1825646;77;20264;-85
2021/09/17 01:01:04;;;;;;;;;;;;;;;19.01;85.25;97719.44;1828021;77;24493;-86
2021/09/17 01:03:30;;;;;;;;;;;;;;;18.91;85.19;97719.68;1799164;77;22636;-86
2021/09/17 01:05:58;;;;;;;;;;;;;;;18.73;85.09;97719.95;1782254;78;26000;-87
2021/09/17 01:08:24;;;;;;;;;;;;;;;18.60;85.00;97713.60;1778424;78;25066;-85
2021/09/17 01:10:55;;;;;;;;;;;;;;;18.46;84.89;97711.14;1773883;79;20240;-85
2021/09/17 01:13:27;;;;;;;;;;;;;;;18.36;84.85;97713.19;1778932;79;24571;-86
2021/09/17 01:15:53;;;;;;;;;;;;;;;18.24;84.77;97715.89;1781308;78;22030;-90
2021/09/17 01:18:23;;;;;;;;;;;;;;;18.15;84.78;97714.29;1777388;79;26553;-86
2021/09/17 01:20:50;;;;;;;;;;;;;;;18.02;84.76;97712.67;1773434;79;24399;-89
2021/09/17 01:23:16;;;;;;;;;;;;;;;17.98;84.79;97719.65;1779000;79;20209;-89
2021/09/17 01:25:42;;;;;;;;;;;;;;;17.94;84.82;97710.90;1777389;79;24507;-86
2021/09/17 01:28:08;;;;;;;;;;;;;;;17.94;84.87;97713.05;1779175;78;22582;-90
2021/09/17 01:30:34;;;;;;;;;;;;;;;17.92;84.93;97714.20;1773887;79;21025;-87
2021/09/17 01:33:00;;;;;;;;;;;;;;;17.86;84.96;97714.39;1779622;79;24550;-89
2021/09/17 01:35:27;;;;;;;;;;;;;;;17.82;84.98;97709.11;1775237;79;20177;-90
2021/09/17 01:37:53;;;;;;;;;;;;;;;17.82;85.02;97709.61;1774757;78;20274;-90
2021/09/17 01:40:19;;;;;;;;;;;;;;;17.77;85.05;97704.00;1776531;78;22032;-87
2021/09/17 01:42:46;;;;;;;;;;;;;;;17.73;85.08;97707.99;1774863;79;25983;-87
2021/09/17 01:45:12;;;;;;;;;;;;;;;17.69;85.13;97704.84;1780756;79;24628;-87
2021/09/17 01:47:39;;;;;;;;;;;;;;;17.57;85.16;97699.05;1780451;79;20253;-89
2021/09/17 01:50:05;;;;;;;;;;;;;;;17.51;85.14;97697.59;1778036;79;24506;-88
2021/09/17 01:52:31;;;;;;;;;;;;;;;17.45;85.14;97702.23;1776265;79;22034;-88
2021/09/17 01:54:57;;;;;;;;;;;;;;;17.35;85.14;97694.45;1774088;79;26031;-89
2021/09/17 01:57:23;;;;;;;;;;;;;;;17.15;85.12;97703.23;1778897;78;24470;-88
2021/09/17 01:59:49;;;;;;;;;;;;;;;17.00;85.05;97699.61;1779939;79;20569;-88
2021/09/17 02:02:15;;;;;;;;;;;;;;;16.93;85.06;97697.78;1774356;78;20224;-87
2021/09/17 02:04:41;;;;;;;;;;;;;;;16.90;85.09;97694.16;1820855;77;22029;-88
2021/09/17 02:07:07;;;;;;;;;;;;;;;16.87;85.14;97687.38;1832633;77;26064;-86
2021/09/17 02:09:41;;;;;;;;;;;;;;;16.83;85.14;97691.84;1825216;77;24620;-90
2021/09/17 02:12:01;;;;;;;;;;;;;;;16.79;85.16;97698.45;1819079;77;20289;-88
2021/09/17 02:14:34;;;;;;;;;;;;;;;16.77;85.21;97687.20;1824770;77;20447;-88
2021/09/17 02:17:00;;;;;;;;;;;;;;;16.75;85.25;97691.32;1829616;77;22068;-89
2021/09/17 02:19:28;;;;;;;;;;;;;;;16.76;85.32;97690.83;1821099;77;21039;-86
2021/09/17 02:21:55;;;;;;;;;;;;;;;16.77;85.34;97693.31;1825450;77;24411;-83
2021/09/17 02:24:32;;;;;;;;;;;;;;;16.69;85.40;97691.48;1829578;77;20185;-87
2021/09/17 02:26:58;;;;;;;;;;;;;;;16.68;85.41;97687.70;1828316;77;24503;-87
2021/09/17 02:29:24;;;;;;;;;;;;;;;16.66;85.46;97683.06;1824109;77;22016;-87
2021/09/17 02:31:50;;;;;;;;;;;;;;;16.67;85.50;97686.88;1824667;77;25949;-87
2021/09/17 02:34:16;;;;;;;;;;;;;;;16.66;85.52;97683.06;1825135;77;20875;-83
2021/09/17 02:36:42;;;;;;;;;;;;;;;16.62;85.53;97693.14;1824222;77;20311;-86
2021/09/17 02:39:11;;;;;;;;;;;;;;;16.62;85.57;97691.00;1823070;77;24531;-87
2021/09/17 02:41:36;;;;;;;;;;;;;;;16.57;85.58;97687.49;1827494;77;22055;-87
2021/09/17 02:44:08;;;;;;;;;;;;;;;16.56;85.62;97686.33;1826895;77;25728;-86
2021/09/17 02:46:36;;;;;;;;;;;;;;;16.64;85.69;97686.36;1826033;77;20170;-86
2021/09/17 02:49:03;;;;;;;;;;;;;;;16.63;85.75;97682.09;1826154;77;20242;-86
2021/09/17 02:51:34;;;;;;;;;;;;;;;16.60;85.77;97677.94;1833711;77;24521;-83
2021/09/17 02:54:00;;;;;;;;;;;;;;;16.64;85.85;97688.50;1823419;77;22071;-84
2021/09/17 02:56:34;;;;;;;;;;;;;;;16.71;85.88;97695.29;1824476;76;25983;-83
2021/09/17 02:59:00;;;;;;;;;;;;;;;16.75;85.94;97691.84;1820903;77;24415;-85
2021/09/17 03:01:26;;;;;;;;;;;;;;;16.81;85.98;97694.63;1818496;77;20221;-85
2021/09/17 03:03:52;;;;;;;;;;;;;;;16.81;85.98;97693.31;1816727;77;24611;-88
2021/09/17 03:06:18;;;;;;;;;;;;;;;16.78;85.97;97698.11;1801812;79;22001;-87
2021/09/17 03:08:54;;;;;;;;;;;;;;;16.72;85.96;97704.88;1795773;77;25998;-88
2021/09/17 03:11:20;;;;;;;;;;;;;;;16.68;85.97;97700.91;1795275;79;24629;-86
2021/09/17 03:13:49;;;;;;;;;;;;;;;16.69;85.97;97703.89;1799182;79;20155;-89
2021/09/17 03:16:15;;;;;;;;;;;;;;;16.68;85.99;97708.34;1801596;78;24523;-89
2021/09/17 03:18:41;;;;;;;;;;;;;;;16.61;86.00;97716.58;1790753;79;21999;-85
2021/09/17 03:21:07;;;;;;;;;;;;;;;16.59;85.98;97717.23;1797543;79;21053;-89
2021/09/17 03:23:34;;;;;;;;;;;;;;;16.49;85.97;97714.37;1800554;79;24482;-85
2021/09/17 03:26:06;;;;;;;;;;;;;;;16.47;85.95;97711.91;1790115;79;20273;-85
2021/09/17 03:28:32;;;;;;;;;;;;;;;16.53;85.95;97715.72;1793136;79;24592;-89
2021/09/17 03:31:07;;;;;;;;;;;;;;;16.51;85.98;97729.08;1794776;78;21927;-89
2021/09/17 03:33:34;;;;;;;;;;;;;;;16.52;85.95;97725.95;1797090;79;26051;-89
2021/09/17 03:35:59;;;;;;;;;;;;;;;16.48;85.92;97729.87;1796665;79;20213;-88
2021/09/17 03:38:25;;;;;;;;;;;;;;;16.47;85.87;97728.25;1793802;79;20819;-91
2021/09/17 03:40:52;;;;;;;;;;;;;;;16.43;85.81;97733.01;1799859;79;24512;-91
2021/09/17 03:43:18;;;;;;;;;;;;;;;16.43;85.79;97730.86;1798563;79;22025;-89
2021/09/17 03:45:47;;;;;;;;;;;;;;;16.41;85.75;97735.49;1791189;79;26126;-89
2021/09/17 03:48:13;;;;;;;;;;;;;;;16.35;85.71;97730.84;1801544;79;24457;-89
2021/09/17 03:50:40;;;;;;;;;;;;;;;16.30;85.68;97731.34;1797340;78;20261;-85
2021/09/17 03:53:06;;;;;;;;;;;;;;;16.26;85.67;97730.81;1793552;79;24599;-86
2021/09/17 03:55:39;;;;;;;;;;;;;;;16.27;85.67;97741.70;1789567;79;22066;-92
2021/09/17 03:58:09;;;;;;;;;;;;;;;16.23;85.66;97739.06;1796771;79;26098;-86
2021/09/17 04:00:39;;;;;;;;;;;;;;;16.24;85.67;97744.68;1794322;79;24432;-92
2021/09/17 04:03:07;;;;;;;;;;;;;;;16.21;85.68;97743.66;1795374;79;20333;-92
2021/09/17 04:05:33;;;;;;;;;;;;;;;16.17;85.67;97741.50;1757710;80;24688;-88
2021/09/17 04:08:06;;;;;;;;;;;;;;;16.14;85.66;97744.47;1757900;78;21944;-86
2021/09/17 04:10:32;;;;;;;;;;;;;;;16.10;85.69;97749.22;1765159;81;25958;-86
2021/09/17 04:12:59;;;;;;;;;;;;;;;16.12;85.73;97748.58;1760004;81;24463;-90
2021/09/17 04:15:25;;;;;;;;;;;;;;;16.08;85.76;97747.74;1732286;81;20183;-90
2021/09/17 04:17:53;;;;;;;;;;;;;;;16.10;85.80;97752.35;1762251;80;24760;-92
2021/09/17 04:20:25;;;;;;;;;;;;;;;16.14;85.84;97751.91;1763367;80;21960;-91
2021/09/17 04:22:51;;;;;;;;;;;;;;;16.16;85.85;97749.91;1763571;78;26121;-86
2021/09/17 04:25:23;;;;;;;;;;;;;;;16.16;85.85;97754.36;1760182;77;24624;-86
2021/09/17 04:27:50;;;;;;;;;;;;;;;16.16;85.88;97756.52;1759276;80;20221;-86
2021/09/17 04:30:23;;;;;;;;;;;;;;;16.13;85.90;97760.80;1768661;78;24743;-89
2021/09/17 04:32:49;;;;;;;;;;;;;;;16.13;85.93;97756.84;1761042;78;21961;-86
2021/09/17 04:35:33;;;;;;;;;;;;;;;16.10;85.94;97755.83;1763926;78;26016;-92
2021/09/17 04:38:05;;;;;;;;;;;;;;;16.04;85.98;97756.45;1755342;80;24557;-90
2021/09/17 04:40:31;;;;;;;;;;;;;;;15.94;85.96;97756.23;1757967;79;20242;-89
2021/09/17 04:42:58;;;;;;;;;;;;;;;15.82;85.93;97753.86;1759576;79;24583;-88
2021/09/17 04:45:25;;;;;;;;;;;;;;;15.79;85.93;97761.27;1761472;80;21695;-86
2021/09/17 04:47:51;;;;;;;;;;;;;;;15.71;85.93;97760.72;1759234;80;25989;-89
2021/09/17 04:50:17;;;;;;;;;;;;;;;15.69;85.94;97765.83;1763924;81;24402;-90
2021/09/17 04:52:44;;;;;;;;;;;;;;;15.64;85.98;97762.84;1758739;81;20304;-90
2021/09/17 04:55:10;;;;;;;;;;;;;;;15.58;85.95;97766.09;1758896;78;24792;-86
2021/09/17 04:57:36;;;;;;;;;;;;;;;15.57;85.95;97771.02;1763654;78;21931;-86
2021/09/17 05:00:04;;;;;;;;;;;;;;;15.57;85.95;97770.53;1757006;79;25988;-89
2021/09/17 05:02:30;;;;;;;;;;;;;;;15.54;85.96;97770.86;1765193;78;24433;-90
2021/09/17 05:04:56;;;;;;;;;;;;;;;15.49;85.94;97775.22;1770973;78;20349;-89
2021/09/17 05:07:22;;;;;;;;;;;;;;;15.48;85.93;97777.55;1777353;79;24524;-86
2021/09/17 05:09:48;;;;;;;;;;;;;;;15.50;85.95;97780.00;1776869;79;20320;-88
2021/09/17 05:12:14;;;;;;;;;;;;;;;15.49;85.95;97781.81;1776137;79;26020;-86
2021/09/17 05:14:40;;;;;;;;;;;;;;;15.50;85.98;97777.36;1777204;79;20849;-86
2021/09/17 05:17:06;;;;;;;;;;;;;;;15.49;85.97;97784.97;1778077;79;20257;-86
2021/09/17 05:19:32;;;;;;;;;;;;;;;15.44;85.98;97782.77;1775433;79;24615;-86
2021/09/17 05:21:58;;;;;;;;;;;;;;;15.43;86.00;97786.41;1772974;79;22072;-89
2021/09/17 05:24:25;;;;;;;;;;;;;;;15.44;86.03;97785.40;1773710;79;26036;-86
2021/09/17 05:26:53;;;;;;;;;;;;;;;15.43;86.02;97783.77;1780549;79;24545;-89
2021/09/17 05:29:21;;;;;;;;;;;;;;;15.46;86.05;97787.89;1775072;79;20220;-88
2021/09/17 05:31:52;;;;;;;;;;;;;;;15.46;86.08;97787.89;1777035;79;25308;-86
2021/09/17 05:34:27;;;;;;;;;;;;;;;15.49;86.09;97788.92;1775475;79;22000;-91
2021/09/17 05:36:53;;;;;;;;;;;;;;;15.49;86.13;97789.72;1775643;79;26054;-89
2021/09/17 05:39:20;;;;;;;;;;;;;;;15.45;86.15;97791.02;1773715;79;20291;-87
2021/09/17 05:41:46;;;;;;;;;;;;;;;15.43;86.15;97790.84;1783137;79;20212;-86
2021/09/17 05:44:23;;;;;;;;;;;;;;;15.50;86.17;97790.55;1775278;79;20758;-90
2021/09/17 05:46:49;;;;;;;;;;;;;;;15.49;86.18;97788.40;1774444;79;21981;-87
2021/09/17 05:49:15;;;;;;;;;;;;;;;15.47;86.20;97791.70;1775862;79;26008;-90
2021/09/17 05:51:45;;;;;;;;;;;;;;;15.47;86.20;97789.55;1787703;79;24792;-89
2021/09/17 05:54:11;;;;;;;;;;;;;;;15.54;86.23;97791.13;1778409;79;20167;-89
2021/09/17 05:56:37;;;;;;;;;;;;;;;15.60;86.23;97798.42;1776310;79;24510;-90
2021/09/17 05:59:03;;;;;;;;;;;;;;;15.59;86.26;97799.41;1777434;79;22044;-90
2021/09/17 06:01:29;;;;;;;;;;;;;;;15.60;86.28;97793.15;1774460;79;26027;-88
2021/09/17 06:03:55;;;;;;;;;;;;;;;15.61;86.27;97793.45;1769690;79;24430;-88
2021/09/17 06:06:31;;;;;;;;;;;;;;;15.59;86.29;97789.68;1729064;82;20287;-89
2021/09/17 06:08:57;;;;;;;;;;;;;;;15.58;86.30;97796.42;1801489;79;24543;-90
2021/09/17 06:11:23;;;;;;;;;;;;;;;15.58;86.30;97797.73;1798610;78;20258;-89
2021/09/17 06:13:49;;;;;;;;;;;;;;;15.54;86.32;97794.59;1801553;79;25828;-90
2021/09/17 06:16:15;;;;;;;;;;;;;;;15.60;86.31;97790.52;1799335;79;24430;-90
2021/09/17 06:18:41;;;;;;;;;;;;;;;15.63;86.32;97791.51;1800169;79;20322;-89
2021/09/17 06:21:10;;;;;;;;;;;;;;;15.63;86.34;97788.88;1799367;79;24530;-88
2021/09/17 06:23:37;;;;;;;;;;;;;;;15.66;86.34;97792.50;1798001;79;22094;-89
2021/09/17 06:26:03;;;;;;;;;;;;;;;15.63;86.36;97785.75;1800740;79;26027;-90
2021/09/17 06:28:29;;;;;;;;;;;;;;;15.61;86.35;97793.45;1797823;79;24468;-90
2021/09/17 06:30:56;;;;;;;;;;;;;;;15.58;86.36;97790.66;1799568;79;20477;-91
2021/09/17 06:33:32;;;;;;;;;;;;;;;15.60;86.36;97793.15;1798417;79;24503;-90
2021/09/17 06:36:01;;;;;;;;;;;;;;;15.66;86.39;97795.97;1796723;79;22010;-90
2021/09/17 06:38:27;;;;;;;;;;;;;;;15.76;86.42;97795.41;1797882;79;21051;-87
2021/09/17 06:40:53;;;;;;;;;;;;;;;15.78;86.40;97799.19;1798202;79;24481;-89
2021/09/17 06:43:19;;;;;;;;;;;;;;;15.78;86.43;97800.51;1797524;79;20288;-87
2021/09/17 06:45:45;;;;;;;;;;;;;;;15.74;86.45;97793.89;1799942;79;24532;-90
2021/09/17 06:48:12;;;;;;;;;;;;;;;15.74;86.45;97790.77;1800552;79;21904;-90
2021/09/17 06:50:38;;;;;;;;;;;;;;;15.78;86.45;97797.87;1797858;79;26042;-88
2021/09/17 06:53:04;;;;;;;;;;;;;;;15.77;86.45;97789.13;1797584;79;24392;-90
2021/09/17 06:55:30;;;;;;;;;;;;;;;15.81;86.45;97792.30;1791762;79;20884;-90
2021/09/17 06:57:58;;;;;;;;;;;;;;;15.85;86.47;97798.91;1798830;79;24512;-90
2021/09/17 07:00:31;;;;;;;;;;;;;;;15.85;86.48;97792.31;1798342;79;21649;-90
2021/09/17 07:02:58;;;;;;;;;;;;;;;15.87;86.48;97795.64;1761885;80;25998;-87
2021/09/17 07:05:24;;;;;;;;;;;;;;;15.89;86.48;97794.97;1764259;80;25092;-89
2021/09/17 07:07:54;;;;;;;;;;;;;;;15.90;86.47;97786.91;1788635;79;20249;-89
2021/09/17 07:10:21;;;;;;;;;;;;;;;15.90;86.47;97788.23;1783810;79;24603;-90
2021/09/17 07:12:47;;;;;;;;;;;;;;;15.98;86.49;97786.62;1786481;79;22096;-87
2021/09/17 07:15:14;;;;;;;;;;;;;;;16.04;86.47;97791.28;1752733;79;26028;-87
2021/09/17 07:17:41;;;;;;;;;;;;;;;16.05;86.51;97795.55;1761227;80;24816;-87
2021/09/17 07:20:09;;;;;;;;;;;;;;;16.09;86.48;97795.08;1760636;80;20162;-88
2021/09/17 07:22:36;;;;;;;;;;;;;;;16.13;86.48;97792.97;1767576;80;24553;-87
2021/09/17 07:25:03;;;;;;;;;;;;;;;16.17;86.49;97799.58;1759237;80;22017;-90
2021/09/17 07:27:29;;;;;;;;;;;;;;;16.16;86.43;97797.44;1769235;80;26050;-88
2021/09/17 07:29:55;;;;;;;;;;;;;;;16.23;86.42;97798.47;1777794;79;24369;-88
2021/09/17 07:32:22;;;;;;;;;;;;;;;16.29;86.37;97801.80;1776586;79;20315;-87
2021/09/17 07:34:48;;;;;;;;;;;;;;;16.33;86.35;97803.12;1758774;80;24555;-87
2021/09/17 07:37:14;;;;;;;;;;;;;;;16.28;86.34;97801.95;1758868;80;21909;-87
2021/09/17 07:39:42;;;;;;;;;;;;;;;16.33;86.31;97814.18;1751233;80;25993;-91
2021/09/17 07:42:08;;;;;;;;;;;;;;;16.38;86.27;97807.09;1735499;81;24452;-89
2021/09/17 07:44:35;;;;;;;;;;;;;;;16.39;86.24;97814.05;1761212;80;20181;-89
2021/09/17 07:47:01;;;;;;;;;;;;;;;16.41;86.19;97808.95;1726367;79;25173;-90
2021/09/17 07:49:30;;;;;;;;;;;;;;;16.46;86.17;97811.94;1767521;80;22122;-90
2021/09/17 07:51:56;;;;;;;;;;;;;;;16.45;86.13;97814.73;1767222;80;26188;-89
2021/09/17 07:54:23;;;;;;;;;;;;;;;16.41;86.10;97815.55;1767810;80;20259;-89
2021/09/17 07:56:55;;;;;;;;;;;;;;;16.35;86.11;97818.83;1759922;80;20260;-89
2021/09/17 07:59:23;;;;;;;;;;;;;;;16.29;86.09;97818.13;1769755;80;38589;-89
2021/09/17 08:01:55;;;;;;;;;;;;;;;16.33;86.09;97818.97;1759617;80;22075;-89
2021/09/17 08:04:23;;;;;;;;;;;;;;;16.37;86.08;97813.36;1761847;80;26012;-90
2021/09/17 08:06:51;;;;;;;;;;;;;;;16.35;86.07;97812.71;1744774;81;24524;-90
2021/09/17 08:09:17;;;;;;;;;;;;;;;16.38;86.07;97809.73;1744894;82;20166;-88
2021/09/17 08:11:43;;;;;;;;;;;;;;;16.39;86.08;97806.12;1745510;81;20263;-87
2021/09/17 08:14:10;;;;;;;;;;;;;;;16.43;86.07;97808.28;1804406;79;22059;-89
2021/09/17 08:16:36;;;;;;;;;;;;;;;16.43;86.08;97812.73;1754393;79;26011;-90
2021/09/17 08:19:04;;;;;;;;;;;;;;;16.41;86.06;97816.88;1765767;79;24368;-90
2021/09/17 08:21:30;;;;;;;;;;;;;;;16.41;86.06;97824.80;1767508;79;20189;-90
2021/09/17 08:23:56;;;;;;;;;;;;;;;16.40;86.07;97820.98;1799494;78;24574;-87
2021/09/17 08:26:25;;;;;;;;;;;;;;;16.41;86.09;97823.48;1752423;79;22087;-87
2021/09/17 08:28:51;;;;;;;;;;;;;;;16.47;86.12;97820.20;1757075;81;26100;-89
2021/09/17 08:31:17;;;;;;;;;;;;;;;16.51;86.15;97820.70;1722293;81;20877;-89
2021/09/17 08:33:47;;;;;;;;;;;;;;;16.54;86.17;97820.38;1797573;77;20306;-88
2021/09/17 08:36:17;;;;;;;;;;;;;;;16.66;86.21;97825.73;1802586;78;25422;-89
2021/09/17 08:38:43;;;;;;;;;;;;;;;16.75;86.23;97831.38;1798179;78;22039;-89
2021/09/17 08:41:10;;;;;;;;;;;;;;;16.72;86.22;97827.74;1756286;81;26011;-89
2021/09/17 08:43:37;;;;;;;;;;;;;;;16.75;86.18;97825.29;1756985;79;24406;-88
2021/09/17 08:46:03;;;;;;;;;;;;;;;16.79;86.17;97820.84;1761530;79;20261;-88
2021/09/17 08:48:30;;;;;;;;;;;;;;;16.76;86.10;97818.99;1797686;78;20233;-88
2021/09/17 08:50:57;;;;;;;;;;;;;;;16.79;86.06;97822.16;1776431;79;21936;-89
2021/09/17 08:53:26;;;;;;;;;;;;;;;16.88;86.06;97822.50;1802529;77;26163;-89
2021/09/17 08:55:55;;;;;;;;;;;;;;;16.88;86.03;97825.15;1800678;78;25214;-90
2021/09/17 08:58:21;;;;;;;;;;;;;;;16.86;85.98;97818.36;1808636;77;20213;-91
2021/09/17 09:00:47;;;;;;;;;;;;;;;16.90;85.95;97823.67;1802560;78;24601;-89
2021/09/17 09:06:12;;;;;;;;;;;;;;;16.93;85.84;97820.69;1778291;79;26056;-88
2021/09/17 09:08:40;;;;;;;;;;;;;;;17.05;85.81;97810.98;1790433;79;24449;-88
2021/09/17 09:11:25;;;;;;;;;;;;;;;17.06;85.79;97815.28;1763118;80;20214;-91
2021/09/17 09:14:11;;;;;;;;;;;;;;;17.05;85.76;97814.95;1819276;77;24570;-90
2021/09/17 09:16:40;;;;;;;;;;;;;;;17.19;85.76;97814.78;1822737;77;22013;-89
2021/09/17 09:19:29;;;;;;;;;;;;;;;17.25;85.75;97812.81;1826402;77;25976;-87
2021/09/17 09:21:57;;;;;;;;;;;;;;;17.21;85.71;97814.14;1828186;77;24376;-89
2021/09/17 09:24:39;;;;;;;;;;;;;;;17.12;85.60;97811.16;1824019;77;20288;-90
2021/09/17 09:27:04;;;;;;;;;;;;;;;17.15;85.52;97808.18;1826754;77;24606;-89
2021/09/17 09:29:33;;;;;;;;;;;;;;;17.13;85.48;97808.33;1824928;77;22826;-89
2021/09/17 09:32:02;;;;;;;;;;;;;;;17.09;85.44;97810.98;1828135;77;26779;-90
2021/09/17 09:34:50;;;;;;;;;;;;;;;17.02;85.37;97806.00;1832573;77;25275;-89
2021/09/17 09:37:20;;;;;;;;;;;;;;;17.10;85.38;97812.64;1832321;77;20183;-90
2021/09/17 09:39:56;;;;;;;;;;;;;;;17.13;85.33;97804.36;1820670;77;24513;-88
2021/09/17 09:42:34;;;;;;;;;;;;;;;17.20;85.30;97803.22;1830385;77;22105;-89
2021/09/17 09:45:20;;;;;;;;;;;;;;;17.21;85.25;97808.02;1827101;77;26672;-90
2021/09/17 09:47:54;;;;;;;;;;;;;;;17.13;85.19;97802.21;1825209;77;24486;-87
2021/09/17 09:50:31;;;;;;;;;;;;;;;17.01;85.08;97804.86;1825135;77;20296;-89
2021/09/17 09:53:05;;;;;;;;;;;;;;;16.92;85.01;97807.14;1817611;77;25231;-90
2021/09/17 09:55:40;;;;;;;;;;;;;;;16.85;84.95;97809.62;1830068;77;21965;-87
2021/09/17 09:58:05;;;;;;;;;;;;;;;16.89;84.94;97808.80;1823205;76;26789;-89
2021/09/17 10:00:32;;;;;;;;;;;;;;;16.92;84.94;97802.68;1828233;77;24645;-88
2021/09/17 10:02:59;;;;;;;;;;;;;;;16.92;84.95;97793.92;1827239;77;20153;-88
2021/09/17 10:05:27;;;;;;;;;;;;;;;16.90;84.95;97794.59;1827154;77;24744;-91
2021/09/17 10:07:53;;;;;;;;;;;;;;;16.87;84.94;97802.34;1796430;77;22287;-87
2021/09/17 10:10:19;;;;;;;;;;;;;;;16.82;84.92;97796.72;1820692;77;26089;-90
2021/09/17 10:12:47;;;;;;;;;;;;;;;16.79;84.93;97790.45;1830403;77;20167;-90
2021/09/17 10:15:15;;;;;;;;;;;;;;;16.85;84.98;97791.62;1825446;77;20252;-87
2021/09/17 10:17:52;;;;;;;;;;;;;;;16.84;85.00;97789.95;1817564;77;24541;-89
2021/09/17 10:20:19;;;;;;;;;;;;;;;16.83;85.04;97786.48;1816792;77;22046;-88
2021/09/17 10:22:45;;;;;;;;;;;;;;;16.82;85.05;97782.67;1830280;77;26053;-88
2021/09/17 10:25:12;;;;;;;;;;;;;;;16.85;85.08;97787.16;1832296;77;24369;-87
2021/09/17 10:27:41;;;;;;;;;;;;;;;16.86;85.13;97786.64;1830003;77;20252;-92
2021/09/17 10:30:09;;;;;;;;;;;;;;;16.85;85.13;97783.20;1818376;77;24603;-88
2021/09/17 10:32:37;;;;;;;;;;;;;;;16.81;85.13;97775.73;1826360;77;21985;-89
2021/09/17 10:35:11;;;;;;;;;;;;;;;16.72;85.08;97783.66;1828033;77;26040;-89
2021/09/17 10:37:51;;;;;;;;;;;;;;;16.71;85.09;97791.24;1823756;77;24416;-90
2021/09/17 10:40:17;;;;;;;;;;;;;;;16.71;85.10;97785.95;1822914;77;20234;-90
2021/09/17 10:42:55;;;;;;;;;;;;;;;16.69;85.11;97786.60;1826606;77;24496;-90
2021/09/17 10:45:24;;;;;;;;;;;;;;;16.76;85.15;97780.67;1826080;77;22787;-90
2021/09/17 10:47:54;;;;;;;;;;;;;;;16.91;85.27;97779.08;1829496;77;26846;-90
2021/09/17 10:50:21;;;;;;;;;;;;;;;17.12;85.39;97775.47;1831156;77;24439;-88
2021/09/17 10:52:50;;;;;;;;;;;;;;;17.31;85.51;97775.63;1824683;77;20265;-90
2021/09/17 10:55:35;;;;;;;;;;;;;;;17.37;85.59;97769.67;1819093;77;24526;-89
2021/09/17 10:58:19;;;;;;;;;;;;;;;17.50;85.65;97767.37;1832675;76;22044;-89
2021/09/17 11:01:00;;;;;;;;;;;;;;;17.72;85.71;97761.91;1822361;77;26074;-89
2021/09/17 11:03:54;;;;;;;;;;;;;;;17.79;85.79;97772.96;1824598;77;25459;-87
2021/09/17 11:06:24;;;;;;;;;;;;;;;17.85;85.85;97763.52;1817887;77;20333;-87
2021/09/17 11:09:01;;;;;;;;;;;;;;;17.97;85.93;97768.30;1807301;77;24549;-90
2021/09/17 11:11:49;;;;;;;;;;;;;;;18.00;85.95;97764.50;1807978;78;22068;-87
2021/09/17 11:14:16;;;;;;;;;;;;;;;18.03;85.95;97765.96;1813532;78;27661;-87
2021/09/17 11:16:51;;;;;;;;;;;;;;;17.96;85.88;97767.96;1817126;78;23935;-89
2021/09/17 11:19:19;;;;;;;;;;;;;;;17.96;85.78;97767.96;1810628;78;20478;-90
2021/09/17 11:21:47;;;;;;;;;;;;;;;18.10;85.74;97776.21;1822325;78;24549;-87
2021/09/17 11:24:20;;;;;;;;;;;;;;;18.15;85.66;97773.88;1814394;78;22091;-87
2021/09/17 11:26:48;;;;;;;;;;;;;;;18.11;85.55;97772.58;1815808;78;25967;-89
2021/09/17 11:29:18;;;;;;;;;;;;;;;18.12;85.52;97766.25;1815322;78;24698;-89
2021/09/17 11:31:49;;;;;;;;;;;;;;;18.17;85.47;97757.30;1812719;78;20562;-89
2021/09/17 11:34:17;;;;;;;;;;;;;;;18.22;85.43;97764.27;1808575;78;24597;-89
2021/09/17 11:36:54;;;;;;;;;;;;;;;18.20;85.35;97754.33;1807516;78;22014;-88
2021/09/17 11:39:26;;;;;;;;;;;;;;;18.38;85.29;97757.04;1820244;77;21735;-89
2021/09/17 11:42:04;;;;;;;;;;;;;;;18.55;85.24;97755.17;1810685;77;24485;-89
2021/09/17 11:44:49;;;;;;;;;;;;;;;18.64;85.20;97758.13;1807486;78;20270;-89
2021/09/17 11:47:16;;;;;;;;;;;;;;;18.69;85.15;97762.41;1816430;78;24585;-87
2021/09/17 11:49:44;;;;;;;;;;;;;;;18.56;84.93;97763.45;1802450;78;21935;-87
2021/09/17 11:52:15;;;;;;;;;;;;;;;18.56;84.84;97758.16;1804034;78;26253;-87
2021/09/17 11:54:41;;;;;;;;;;;;;;;18.68;84.83;97753.30;1811061;77;24454;-87
2021/09/17 11:57:11;;;;;;;;;;;;;;;18.77;84.78;97749.08;1815635;78;20267;-87
2021/09/17 11:59:46;;;;;;;;;;;;;;;18.77;84.68;97750.91;1815292;78;24506;-89
2021/09/17 12:02:17;;;;;;;;;;;;;;;18.74;84.53;97752.59;1811059;78;21977;-89
2021/09/17 12:04:45;;;;;;;;;;;;;;;18.76;84.45;97750.08;1814193;78;26057;-87
2021/09/17 12:07:11;;;;;;;;;;;;;;;18.78;84.32;97749.91;1817908;77;24397;-87
2021/09/17 12:09:37;;;;;;;;;;;;;;;18.82;84.18;97749.08;1826849;77;20270;-89
2021/09/17 12:12:06;;;;;;;;;;;;;;;18.72;84.04;97751.94;1822699;77;24596;-88
2021/09/17 12:14:32;;;;;;;;;;;;;;;18.57;83.85;97746.56;1825392;77;21954;-88
2021/09/17 12:17:03;;;;;;;;;;;;;;;18.44;83.65;97757.38;1829485;77;25904;-89
2021/09/17 12:19:30;;;;;;;;;;;;;;;18.37;83.51;97753.27;1821740;77;24407;-89
2021/09/17 12:22:01;;;;;;;;;;;;;;;18.44;83.40;97759.50;1825942;77;20245;-88
2021/09/17 12:24:28;;;;;;;;;;;;;;;18.48;83.29;97752.05;1821869;77;24515;-87
2021/09/17 12:26:55;;;;;;;;;;;;;;;18.47;83.14;97756.52;1817694;77;22071;-89
2021/09/17 12:29:30;;;;;;;;;;;;;;;18.48;83.07;97764.80;1825200;77;25954;-87
2021/09/17 12:31:58;;;;;;;;;;;;;;;18.45;83.01;97762.98;1828151;77;24545;-87
2021/09/17 12:34:25;;;;;;;;;;;;;;;18.40;82.95;97760.85;1813569;77;20376;-90
2021/09/17 12:36:53;;;;;;;;;;;;;;;18.36;82.90;97760.38;1819324;77;24691;-87
2021/09/17 12:39:21;;;;;;;;;;;;;;;18.38;82.89;97765.52;1825672;77;22894;-87
2021/09/17 12:41:50;;;;;;;;;;;;;;;18.40;82.89;97768.80;1824202;77;26735;-89
2021/09/17 12:44:18;;;;;;;;;;;;;;;18.35;82.88;97764.52;1814230;77;25409;-91
2021/09/17 12:46:47;;;;;;;;;;;;;;;18.20;82.80;97770.22;1809275;77;20271;-90
2021/09/17 12:49:15;;;;;;;;;;;;;;;18.06;82.74;97770.41;1832028;77;24810;-90
2021/09/17 12:51:44;;;;;;;;;;;;;;;18.01;82.71;97766.13;1827098;77;22050;-90
2021/09/17 12:54:11;;;;;;;;;;;;;;;18.02;82.71;97769.60;1823300;77;26187;-89
2021/09/17 12:56:37;;;;;;;;;;;;;;;17.97;82.70;97766.97;1828933;77;24526;-89
2021/09/17 12:59:11;;;;;;;;;;;;;;;17.97;82.74;97765.65;1813146;77;20249;-90